Time;durP1;ratioP1;P1;durP2;ratioP2;P2;SDS_P1;SDS_P2;PMS_P1;PMS_P2;Temp;Humidity;BMP_temperature;BMP_pressure;BME280_temperature;BME280_humidity;BME280_pressure;Samples;Min_cycle;Max_cycle;Signal;HPM_P1;HPM_P2
2023/10/21 00:00:21;;;;;;;2.35;0.70;;;;;;;19.78;50.89;98249.75;16113189;19;130167;-44
2023/10/21 00:05:43;;;;;;;3.80;0.70;;;;;;;19.77;51.02;98250.88;16111315;19;132859;-44
2023/10/21 00:11:08;;;;;;;3.65;0.77;;;;;;;19.75;50.81;98256.75;16110142;19;131133;-45
2023/10/21 00:16:30;;;;;;;1.23;0.80;;;;;;;19.75;50.99;98261.47;16111734;19;130306;-45
2023/10/21 00:21:53;;;;;;;2.90;0.73;;;;;;;19.75;50.86;98272.56;16108476;19;130077;-45
2023/10/21 00:27:15;;;;;;;1.70;0.60;;;;;;;19.72;50.93;98260.16;16105114;19;131175;-46
2023/10/21 00:32:37;;;;;;;4.00;0.65;;;;;;;19.69;50.76;98264.38;16109381;19;129846;-45
2023/10/21 00:37:59;;;;;;;4.03;0.80;;;;;;;19.68;50.76;98279.41;16107321;19;133811;-54
2023/10/21 00:43:40;;;;;;;5.53;0.80;;;;;;;19.69;51.00;98286.56;16101949;19;132832;-54
2023/10/21 00:49:04;;;;;;;4.70;0.52;;;;;;;19.67;50.96;98282.47;16105786;19;131020;-50
2023/10/21 00:54:27;;;;;;;1.52;0.52;;;;;;;19.66;50.87;98287.22;16101942;19;130810;-50
2023/10/21 00:59:49;;;;;;;3.67;0.82;;;;;;;19.65;50.93;98296.66;16102818;19;130096;-51
2023/10/21 01:05:13;;;;;;;1.77;0.60;;;;;;;19.64;51.18;98306.13;16102555;19;131143;-52
2023/10/21 01:10:34;;;;;;;3.40;0.73;;;;;;;19.63;50.70;98321.13;16103872;19;130777;-51
2023/10/21 01:15:56;;;;;;;1.45;0.50;;;;;;;19.63;51.27;98329.44;16103834;19;130283;-55
2023/10/21 01:21:18;;;;;;;2.75;0.57;;;;;;;19.62;51.17;98324.22;16106393;19;135169;-49
2023/10/21 01:26:41;;;;;;;1.80;0.45;;;;;;;19.60;50.94;98343.94;16123465;19;129586;-53
2023/10/21 01:32:03;;;;;;;1.48;0.40;;;;;;;19.59;50.82;98345.06;16124948;19;130288;-54
2023/10/21 01:37:25;;;;;;;4.38;0.70;;;;;;;19.60;51.18;98351.44;16123410;19;129220;-55
2023/10/21 01:42:46;;;;;;;2.08;0.60;;;;;;;19.57;51.14;98350.09;16124901;19;131760;-47
2023/10/21 01:48:08;;;;;;;1.08;0.45;;;;;;;19.57;50.91;98365.94;16121824;19;130619;-45
2023/10/21 01:53:31;;;;;;;0.63;0.45;;;;;;;19.56;50.92;98373.44;16122570;19;129407;-45
2023/10/21 01:58:53;;;;;;;2.92;0.65;;;;;;;19.55;51.13;98382.06;16122156;19;131656;-46
2023/10/21 02:04:15;;;;;;;0.85;0.55;;;;;;;19.55;51.12;98396.78;16120575;19;130321;-44
2023/10/21 02:09:37;;;;;;;0.45;0.28;;;;;;;19.53;50.93;98404.56;16114412;19;129585;-43
2023/10/21 02:14:59;;;;;;;2.10;0.55;;;;;;;19.53;50.63;98410.13;16122374;19;129801;-43
2023/10/21 02:20:21;;;;;;;1.90;0.43;;;;;;;19.51;51.16;98404.88;16115698;19;130666;-49
2023/10/21 02:25:43;;;;;;;3.15;0.57;;;;;;;19.50;50.87;98411.59;16121656;19;129692;-51
2023/10/21 02:31:05;;;;;;;0.98;0.38;;;;;;;19.49;51.13;98418.25;16119191;19;131749;-53
2023/10/21 02:36:27;;;;;;;0.70;0.35;;;;;;;19.49;50.74;98431.28;16117549;19;129602;-53
2023/10/21 02:41:49;;;;;;;0.50;0.38;;;;;;;19.48;51.06;98435.19;16118486;19;129568;-53
2023/10/21 02:47:12;;;;;;;1.42;0.50;;;;;;;19.47;50.70;98444.63;16116032;19;129825;-54
2023/10/21 02:52:37;;;;;;;1.08;0.35;;;;;;;19.48;50.60;98449.06;16114955;19;130376;-54
2023/10/21 02:58:00;;;;;;;0.75;0.32;;;;;;;19.46;51.10;98449.38;16114294;19;131031;-51
2023/10/21 03:03:22;;;;;;;0.32;0.22;;;;;;;19.45;50.82;98467.16;16108701;19;129907;-52
2023/10/21 03:08:44;;;;;;;0.63;0.55;;;;;;;19.45;50.86;98474.63;16113719;19;130019;-44
2023/10/21 03:14:05;;;;;;;1.92;0.47;;;;;;;19.43;51.01;98480.50;16107989;19;130134;-43
2023/10/21 03:19:27;;;;;;;0.90;0.32;;;;;;;19.44;50.77;98495.19;16112916;19;130874;-43
2023/10/21 03:24:49;;;;;;;0.73;0.30;;;;;;;19.42;50.51;98492.72;16108621;19;130769;-43
2023/10/21 03:30:12;;;;;;;0.98;0.30;;;;;;;19.41;50.80;98493.03;16113923;19;129500;-43
2023/10/21 03:35:34;;;;;;;0.73;0.43;;;;;;;19.41;50.50;98504.13;16111515;19;129559;-44
2023/10/21 03:41:03;;;;;;;1.65;0.35;;;;;;;19.41;50.77;98509.66;16108193;19;131539;-43
2023/10/21 03:46:25;;;;;;;1.15;0.32;;;;;;;19.40;50.51;98516.34;16106360;19;131835;-43
2023/10/21 03:51:47;;;;;;;1.52;0.40;;;;;;;19.39;50.83;98523.81;16108957;19;129484;-45
2023/10/21 03:57:09;;;;;;;0.93;0.40;;;;;;;19.37;50.69;98529.69;16106953;19;131343;-43
2023/10/21 04:02:31;;;;;;;0.85;0.30;;;;;;;19.38;50.62;98527.75;16110955;19;130987;-42
2023/10/21 04:07:55;;;;;;;0.80;0.40;;;;;;;19.38;50.82;98533.31;16110981;19;130503;-42
2023/10/21 04:13:17;;;;;;;0.90;0.38;;;;;;;19.37;50.39;98540.78;16110412;19;129594;-43
2023/10/21 04:18:38;;;;;;;0.68;0.32;;;;;;;19.35;50.38;98545.81;16105397;19;134017;-42
2023/10/21 04:24:00;;;;;;;0.43;0.25;;;;;;;19.35;50.73;98548.59;16105492;19;129573;-43
2023/10/21 04:29:22;;;;;;;0.90;0.40;;;;;;;19.33;50.60;98548.06;16108934;19;130292;-43
2023/10/21 04:34:44;;;;;;;2.15;0.43;;;;;;;19.34;50.61;98555.25;16111003;19;131015;-44
2023/10/21 04:40:08;;;;;;;0.95;0.32;;;;;;;19.33;50.70;98556.38;16108027;19;130812;-45
2023/10/21 04:45:30;;;;;;;1.80;0.30;;;;;;;19.33;50.74;98561.94;16102313;19;129972;-42
2023/10/21 04:50:52;;;;;;;0.55;0.40;;;;;;;19.31;50.69;98566.16;16104626;19;131209;-46
2023/10/21 04:56:13;;;;;;;1.08;0.45;;;;;;;19.31;50.41;98575.31;16103587;19;129737;-42
2023/10/21 05:01:35;;;;;;;0.75;0.38;;;;;;;19.31;50.64;98589.16;16114230;19;130337;-44
2023/10/21 05:06:57;;;;;;;1.13;0.50;;;;;;;19.30;50.71;98595.84;16120805;19;130256;-43
2023/10/21 05:12:19;;;;;;;0.30;0.20;;;;;;;19.31;50.61;98605.78;16125506;19;131916;-44
2023/10/21 05:17:41;;;;;;;1.60;0.40;;;;;;;19.29;50.57;98604.44;16122194;19;130598;-43
2023/10/21 05:23:03;;;;;;;0.90;0.40;;;;;;;19.29;50.60;98621.91;16120617;19;130005;-43
2023/10/21 05:28:25;;;;;;;0.22;0.20;;;;;;;19.30;50.37;98631.03;16116748;19;131352;-43
2023/10/21 05:33:47;;;;;;;1.05;0.30;;;;;;;19.30;50.59;98637.41;16121327;19;129700;-43
2023/10/21 05:39:11;;;;;;;0.80;0.20;;;;;;;19.29;50.72;98640.47;16118266;19;129264;-42
2023/10/21 05:44:33;;;;;;;0.77;0.40;;;;;;;19.29;50.43;98648.78;16118619;19;132422;-41
2023/10/21 05:50:09;;;;;;;0.32;0.25;;;;;;;19.28;50.34;98653.53;16117017;19;129550;-41
2023/10/21 05:55:31;;;;;;;0.80;0.35;;;;;;;19.28;50.73;98664.63;16115741;19;132384;-39
2023/10/21 06:00:56;;;;;;;;;;;;;;;19.23;50.53;98678.56;16118061;19;130967;-45
2023/10/21 06:06:18;;;;;;;1.90;0.40;;;;;;;19.25;50.56;98687.41;16117093;19;130915;-42
2023/10/21 06:11:40;;;;;;;1.73;0.50;;;;;;;19.24;50.27;98716.25;16117575;19;129926;-42
2023/10/21 06:17:03;;;;;;;1.30;0.30;;;;;;;19.24;50.53;98732.88;16121785;19;129686;-46
2023/10/21 06:22:26;;;;;;;0.63;0.30;;;;;;;19.24;50.50;98757.00;16116710;19;131424;-43
2023/10/21 06:27:47;;;;;;;1.27;0.30;;;;;;;19.23;50.24;98775.59;16112871;19;130507;-44
2023/10/21 06:33:10;;;;;;;0.50;0.32;;;;;;;19.23;50.27;98806.06;16114036;19;130350;-44
2023/10/21 06:38:32;;;;;;;2.92;0.55;;;;;;;19.22;50.27;98829.38;16113327;19;130029;-42
2023/10/21 06:43:54;;;;;;;3.40;0.60;;;;;;;19.20;50.27;98846.28;16104455;19;131590;-44
2023/10/21 06:49:16;;;;;;;2.10;0.40;;;;;;;19.21;50.33;98858.22;16115190;19;130167;-42
2023/10/21 06:54:37;;;;;;;1.40;0.52;;;;;;;19.21;50.03;98858.22;16114076;19;130167;-42
2023/10/21 06:59:59;;;;;;;1.17;0.40;;;;;;;19.21;50.19;98875.69;16116878;19;130613;-42
2023/10/21 07:05:22;;;;;;;0.30;0.25;;;;;;;19.21;50.37;98885.94;16111467;19;129465;-41
2023/10/21 07:10:44;;;;;;;0.90;0.47;;;;;;;19.21;50.35;98902.56;16114929;19;134403;-43
2023/10/21 07:16:10;;;;;;;1.25;0.40;;;;;;;19.21;50.21;98919.19;16115568;19;131062;-42
2023/10/21 07:21:32;;;;;;;1.67;0.50;;;;;;;19.19;50.07;98932.53;16111170;19;130200;-42
2023/10/21 07:26:54;;;;;;;1.58;0.50;;;;;;;19.20;50.17;98950.81;16112392;19;130791;-41
2023/10/21 07:32:16;;;;;;;4.55;0.55;;;;;;;19.18;50.30;98961.38;16110791;19;130036;-44
2023/10/21 07:37:38;;;;;;;2.08;0.40;;;;;;;19.14;50.31;98965.84;16110140;19;131492;-40
2023/10/21 07:43:01;;;;;;;1.13;0.38;;;;;;;19.14;50.23;98979.72;16108710;19;132455;-43
2023/10/21 07:48:25;;;;;;;3.17;0.50;;;;;;;19.17;49.94;98976.34;16110241;19;130075;-43
2023/10/21 07:53:47;;;;;;;2.80;0.40;;;;;;;19.18;50.37;98978.00;16101591;19;131130;-43
2023/10/21 07:59:11;;;;;;;4.15;0.65;;;;;;;19.19;50.29;98988.78;16107479;19;130126;-45
2023/10/21 08:04:33;;;;;;;2.42;0.40;;;;;;;19.20;50.19;98995.97;16110020;19;129465;-42
2023/10/21 08:09:56;;;;;;;3.65;0.50;;;;;;;19.22;50.26;98998.47;16100845;19;131145;-43
2023/10/21 08:15:18;;;;;;;8.45;0.40;;;;;;;19.24;50.08;99012.88;16105635;19;129722;-44
2023/10/21 08:20:40;;;;;;;2.28;0.32;;;;;;;19.27;49.72;99025.28;16111580;19;130487;-42
2023/10/21 08:26:02;;;;;;;1.30;0.40;;;;;;;19.47;49.45;99025.03;16103299;19;129675;-42
2023/10/21 08:31:24;;;;;;;2.85;0.30;;;;;;;20.25;47.85;99046.94;16101735;19;135160;-43
2023/10/21 08:36:46;;;;;;;1.02;0.20;;;;;;;20.19;48.08;99044.53;16107874;19;130459;-43
2023/10/21 08:42:09;;;;;;;0.95;0.30;;;;;;;20.00;48.37;99059.25;16101533;19;129857;-42
2023/10/21 08:47:34;;;;;;;2.15;0.50;;;;;;;19.82;48.42;99069.19;16105533;19;130241;-41
2023/10/21 08:52:57;;;;;;;2.63;0.40;;;;;;;19.66;48.31;99075.00;16100135;19;130411;-43
2023/10/21 08:58:28;;;;;;;0.95;0.30;;;;;;;19.55;48.79;99076.25;16106049;19;131393;-43
2023/10/21 09:03:50;;;;;;;2.58;0.40;;;;;;;19.48;48.87;99090.47;16106301;19;131187;-42
2023/10/21 09:09:22;;;;;;;3.00;0.60;;;;;;;19.45;48.88;99104.09;16105988;19;130779;-41
2023/10/21 09:14:56;;;;;;;3.80;0.30;;;;;;;19.40;49.11;99110.53;16103468;19;130246;-42
2023/10/21 09:20:19;;;;;;;2.28;0.20;;;;;;;19.36;49.20;99115.03;16103624;19;129960;-42
2023/10/21 09:25:48;;;;;;;1.63;0.30;;;;;;;19.38;48.92;99116.38;16105344;19;130768;-45
2023/10/21 09:31:10;;;;;;;5.60;0.65;;;;;;;19.37;48.69;99117.50;16100392;19;129554;-43
2023/10/21 09:36:39;;;;;;;1.48;0.38;;;;;;;19.37;48.50;99125.81;16104485;19;129999;-44
2023/10/21 09:42:03;;;;;;;3.70;0.40;;;;;;;19.38;48.84;99123.88;16104641;19;130620;-42
2023/10/21 09:47:25;;;;;;;2.13;0.40;;;;;;;19.37;48.88;99122.25;16108469;19;131966;-40
2023/10/21 09:53:11;;;;;;;1.23;0.30;;;;;;;19.39;48.54;99119.97;16117968;19;130782;-40
2023/10/21 09:58:35;;;;;;;6.40;0.40;;;;;;;19.41;48.73;99128.00;16115359;19;129881;-45
2023/10/21 10:04:00;;;;;;;6.20;0.60;;;;;;;19.43;48.21;99123.00;16121095;19;129648;-42
2023/10/21 10:09:23;;;;;;;3.97;0.90;;;;;;;19.45;48.15;99132.66;16119766;19;130018;-42
2023/10/21 10:14:46;;;;;;;6.60;1.38;;;;;;;19.45;48.36;99140.97;16121305;19;129526;-43
2023/10/21 10:20:19;;;;;;;8.32;1.40;;;;;;;19.48;47.86;99134.00;16114775;19;131049;-42
2023/10/21 10:25:46;;;;;;;20.42;2.25;;;;;;;19.44;48.03;99149.63;16118232;19;129842;-42
2023/10/21 10:31:09;;;;;;;8.18;1.83;;;;;;;19.42;47.88;99158.22;16112786;19;130551;-45
2023/10/21 10:36:34;;;;;;;9.20;1.60;;;;;;;19.44;48.11;99144.06;16117356;19;130129;-43
2023/10/21 10:41:58;;;;;;;10.77;1.85;;;;;;;19.46;47.73;99150.13;16116635;19;130727;-42
2023/10/21 10:47:23;;;;;;;9.38;1.65;;;;;;;19.47;47.10;99154.53;16108013;19;130433;-46
2023/10/21 10:52:46;;;;;;;9.55;1.60;;;;;;;19.47;47.18;99165.63;16113741;19;129988;-49
2023/10/21 10:58:08;;;;;;;8.73;1.30;;;;;;;19.49;47.10;99169.78;16113946;19;131253;-46
2023/10/21 11:03:36;;;;;;;7.32;1.20;;;;;;;19.52;47.30;99179.47;16109022;19;130387;-42
2023/10/21 11:08:59;;;;;;;10.98;1.70;;;;;;;19.51;47.02;99173.06;16114904;19;129580;-41
2023/10/21 11:14:22;;;;;;;8.38;1.50;;;;;;;19.49;47.22;99180.03;16113414;19;131836;-42
2023/10/21 11:19:44;;;;;;;13.07;1.95;;;;;;;19.47;46.49;99165.63;16110111;19;131116;-43
2023/10/21 11:25:07;;;;;;;7.40;1.60;;;;;;;19.45;46.35;99174.25;16114352;19;129767;-43
2023/10/21 11:30:30;;;;;;;10.73;1.88;;;;;;;19.43;45.43;99175.69;16109615;19;130377;-42
2023/10/21 11:35:52;;;;;;;14.50;1.70;;;;;;;19.42;45.52;99176.81;16112309;19;130960;-42
2023/10/21 11:41:14;;;;;;;9.60;2.03;;;;;;;19.42;45.41;99171.25;16112524;19;129593;-41
2023/10/21 11:46:37;;;;;;;9.98;1.73;;;;;;;19.43;45.52;99161.81;16113659;19;129671;-42
2023/10/21 11:52:00;;;;;;;7.05;1.38;;;;;;;19.44;45.78;99177.34;16109296;19;131130;-41
2023/10/21 12:37:19;;;;;;;9.27;1.50;;;;;;;19.42;45.80;99176.81;16099026;19;129989;-45
2023/10/21 12:42:28;;;;;;;12.45;2.10;;;;;;;19.42;45.72;99190.69;16100111;19;130035;-42
2023/10/21 12:47:51;;;;;;;7.80;1.67;;;;;;;19.39;45.66;99180.97;16096451;19;131030;-42
2023/10/21 12:53:12;;;;;;;9.68;1.80;;;;;;;19.40;46.02;99192.91;16095974;19;130020;-41
2023/10/21 12:58:34;;;;;;;11.27;2.08;;;;;;;19.40;45.72;99177.09;16097283;19;130222;-43
2023/10/21 13:03:57;;;;;;;7.22;1.33;;;;;;;19.38;45.72;99190.44;16104441;19;130303;-42
2023/10/21 13:09:24;;;;;;;7.47;1.70;;;;;;;19.37;46.26;99188.78;16105333;19;129535;-41
2023/10/21 13:14:47;;;;;;;12.20;1.83;;;;;;;19.37;45.92;99195.16;16105546;19;131750;-42
2023/10/21 13:20:16;;;;;;;7.07;1.40;;;;;;;19.37;46.19;99192.38;16115644;19;131208;-41
2023/10/21 13:25:38;;;;;;;10.05;1.50;;;;;;;19.35;46.34;99202.94;16123074;19;131741;-42
2023/10/21 13:31:01;;;;;;;10.70;1.80;;;;;;;19.36;46.42;99192.69;16121980;19;129708;-41
2023/10/21 13:36:24;;;;;;;7.03;2.00;;;;;;;19.34;46.43;99195.72;16123149;19;129936;-42
2023/10/21 13:41:47;;;;;;;6.07;1.38;;;;;;;19.32;46.28;99203.50;16119961;19;130974;-40
2023/10/21 13:47:09;;;;;;;7.43;1.42;;;;;;;19.32;46.58;99205.47;16120430;19;129613;-42
2023/10/21 13:52:31;;;;;;;5.50;1.40;;;;;;;19.29;46.65;99217.97;16109224;19;131228;-42
2023/10/21 13:57:53;;;;;;;7.97;1.30;;;;;;;19.28;46.33;99213.53;16119099;19;131108;-39
2023/10/21 14:03:19;;;;;;;7.82;1.75;;;;;;;19.28;46.25;99213.53;16118801;19;130910;-41
2023/10/21 14:08:41;;;;;;;5.97;1.50;;;;;;;19.24;45.77;99200.56;16123198;19;129599;-39
2023/10/21 14:14:03;;;;;;;8.82;1.50;;;;;;;19.24;46.00;99223.56;16120457;19;129761;-43
2023/10/21 14:19:25;;;;;;;9.63;1.63;;;;;;;19.25;46.47;99213.31;16119700;19;130684;-42
2023/10/21 14:24:47;;;;;;;4.30;1.35;;;;;;;19.26;45.96;99243.50;16118797;19;130916;-40
2023/10/21 14:30:09;;;;;;;6.05;1.35;;;;;;;19.28;45.95;99244.03;16115112;19;129660;-40
2023/10/21 14:35:31;;;;;;;5.78;1.38;;;;;;;19.28;46.09;99243.19;16119068;19;130028;-40
2023/10/21 14:40:54;;;;;;;7.47;1.20;;;;;;;19.24;45.82;99240.19;16117266;19;131615;-40
2023/10/21 14:46:16;;;;;;;5.07;1.30;;;;;;;19.23;46.07;99244.09;16115922;19;130880;-42
2023/10/21 14:51:38;;;;;;;11.63;1.52;;;;;;;19.27;45.96;99252.63;16117821;19;129528;-40
2023/10/21 14:56:59;;;;;;;13.82;2.08;;;;;;;19.31;45.99;99257.34;16118175;19;131471;-43
2023/10/21 15:02:21;;;;;;;29.23;2.63;;;;;;;19.33;45.89;99266.16;16113411;19;129452;-42
2023/10/21 15:07:44;;;;;;;63.05;3.88;;;;;;;19.35;46.27;99257.56;16108837;19;130311;-39
2023/10/21 15:13:07;;;;;;;94.55;6.03;;;;;;;19.39;46.24;99261.41;16108575;19;130293;-39
2023/10/21 15:18:30;;;;;;;31.38;2.85;;;;;;;19.42;46.10;99262.78;16114939;19;131251;-43
2023/10/21 15:23:52;;;;;;;28.33;3.10;;;;;;;19.45;46.32;99251.06;16107341;19;130079;-43
2023/10/21 15:29:15;;;;;;;22.35;2.17;;;;;;;19.46;46.62;99252.72;16109960;19;130493;-43
2023/10/21 15:34:37;;;;;;;24.60;1.98;;;;;;;19.49;46.48;99257.69;16112338;19;131436;-38
2023/10/21 15:40:00;;;;;;;17.45;2.40;;;;;;;19.52;46.25;99259.91;16112980;19;129672;-40
2023/10/21 15:45:22;;;;;;;19.90;1.67;;;;;;;19.55;46.37;99264.88;16112811;19;129384;-41
2023/10/21 15:50:44;;;;;;;17.58;1.70;;;;;;;19.57;46.56;99259.00;16112074;19;134052;-42
2023/10/21 15:56:06;;;;;;;16.67;2.00;;;;;;;19.60;46.37;99270.34;16114022;19;129985;-38
2023/10/21 16:01:34;;;;;;;9.23;1.58;;;;;;;19.61;46.11;99266.44;16111110;19;129781;-39
2023/10/21 16:06:59;;;;;;;14.80;1.65;;;;;;;19.62;46.42;99270.06;16113482;19;131633;-39
2023/10/21 16:12:21;;;;;;;16.38;2.05;;;;;;;19.61;46.12;99274.78;16113327;19;130999;-39
2023/10/21 16:17:43;;;;;;;13.98;1.42;;;;;;;19.63;46.39;99280.84;16111013;19;129939;-39
2023/10/21 16:23:05;;;;;;;13.55;4.60;;;;;;;19.61;46.00;99287.81;16110533;19;130908;-43
2023/10/21 16:28:27;;;;;;;13.43;4.43;;;;;;;19.57;46.05;99289.53;16108144;19;131065;-40
2023/10/21 16:33:49;;;;;;;12.30;5.18;;;;;;;19.54;46.39;99299.25;16112440;19;129716;-39
2023/10/21 16:39:11;;;;;;;22.27;6.97;;;;;;;19.49;46.48;99313.16;16107078;19;130720;-39
2023/10/21 16:44:33;;;;;;;20.58;7.70;;;;;;;19.47;46.53;99318.19;16109609;19;130422;-39
2023/10/21 16:49:55;;;;;;;21.52;10.07;;;;;;;19.43;46.82;99322.66;16105029;19;129302;-40
2023/10/21 16:55:17;;;;;;;23.77;9.15;;;;;;;19.42;47.07;99327.38;16115869;19;129893;-42
2023/10/21 17:00:39;;;;;;;17.75;8.88;;;;;;;19.41;46.97;99349.88;16127835;19;130112;-39
2023/10/21 17:06:01;;;;;;;22.77;9.20;;;;;;;19.42;47.29;99340.44;16126958;19;129673;-39
2023/10/21 17:11:23;;;;;;;16.90;7.88;;;;;;;19.40;47.06;99348.19;16125412;19;129504;-40
2023/10/21 17:16:45;;;;;;;22.88;7.65;;;;;;;19.39;47.04;99352.91;16125273;19;133753;-41
2023/10/21 17:22:07;;;;;;;16.63;8.07;;;;;;;19.36;47.13;99346.00;16110683;19;129731;-39
2023/10/21 17:27:29;;;;;;;21.73;6.60;;;;;;;19.35;46.74;99355.44;16112950;19;129590;-39
2023/10/21 17:32:51;;;;;;;20.13;6.22;;;;;;;19.37;47.27;99371.81;16108280;19;130376;-40
2023/10/21 17:38:13;;;;;;;19.90;6.72;;;;;;;19.39;46.97;99361.22;16120997;19;129621;-38
2023/10/21 17:43:35;;;;;;;14.80;5.53;;;;;;;19.41;47.19;99366.50;16120212;19;130832;-39
2023/10/21 17:48:57;;;;;;;12.70;5.28;;;;;;;19.43;46.81;99376.19;16120763;19;131222;-40
2023/10/21 17:54:19;;;;;;;21.02;5.70;;;;;;;19.45;46.77;99378.66;16114178;19;131115;-44
2023/10/21 17:59:41;;;;;;;15.02;4.13;;;;;;;19.48;47.14;99378.06;16116775;19;129488;-48
2023/10/21 18:05:04;;;;;;;8.40;4.50;;;;;;;19.48;46.89;99380.84;16113020;19;129905;-47
2023/10/21 18:10:26;;;;;;;15.48;3.83;;;;;;;19.49;46.83;99379.72;16115477;19;130064;-49
2023/10/21 18:15:48;;;;;;;14.50;3.83;;;;;;;19.50;46.92;99382.25;16120982;19;129743;-45
2023/10/21 18:21:10;;;;;;;12.90;3.60;;;;;;;19.51;46.51;99377.50;16113985;19;130496;-44
2023/10/21 18:26:32;;;;;;;9.15;3.35;;;;;;;19.52;46.81;99384.72;16109703;19;129929;-43
2023/10/21 18:31:57;;;;;;;6.88;2.88;;;;;;;19.52;46.24;99395.81;16116331;19;129916;-45
2023/10/21 18:37:19;;;;;;;22.73;3.17;;;;;;;19.51;46.17;99391.38;16116293;19;130229;-43
2023/10/21 18:42:41;;;;;;;19.23;2.95;;;;;;;19.52;46.35;99385.53;16115344;19;130235;-42
2023/10/21 18:48:03;;;;;;;20.83;3.17;;;;;;;19.53;46.18;99391.91;16116435;19;129054;-43
2023/10/21 18:53:25;;;;;;;19.65;3.13;;;;;;;19.54;46.64;99388.03;16110310;19;132239;-43
2023/10/21 18:58:48;;;;;;;15.98;2.88;;;;;;;19.56;46.71;99385.78;16107755;19;131053;-42
2023/10/21 19:04:10;;;;;;;18.38;3.20;;;;;;;19.57;46.71;99387.41;16114386;19;129684;-43
2023/10/21 19:09:32;;;;;;;22.13;3.58;;;;;;;19.59;46.28;99387.97;16111446;19;130354;-45
2023/10/21 19:14:54;;;;;;;16.52;2.63;;;;;;;19.61;46.43;99376.59;16112636;19;129224;-44
2023/10/21 19:20:16;;;;;;;17.75;3.63;;;;;;;19.62;46.38;99384.63;16104304;19;130542;-44
2023/10/21 19:25:44;;;;;;;16.10;2.67;;;;;;;19.64;46.35;99387.94;16109167;19;129656;-43
2023/10/21 19:31:13;;;;;;;12.35;2.53;;;;;;;19.64;46.08;99384.31;16110165;19;130389;-47
2023/10/21 19:36:36;;;;;;;11.98;2.28;;;;;;;19.64;46.24;99392.63;16110214;19;131217;-46
2023/10/21 19:41:58;;;;;;;14.23;2.00;;;;;;;19.64;46.31;99382.38;16104449;19;129533;-45
2023/10/21 19:47:20;;;;;;;59.22;4.40;;;;;;;19.66;46.19;99391.25;16102728;19;134485;-44
2023/10/21 19:52:42;;;;;;;22.15;2.75;;;;;;;19.66;46.41;99398.72;16106896;19;130083;-41
2023/10/21 19:58:04;;;;;;;19.42;3.10;;;;;;;19.67;46.40;99395.69;16107437;19;129604;-45
2023/10/21 20:03:27;;;;;;;25.92;3.20;;;;;;;19.67;46.28;99397.63;16103271;19;129435;-47
2023/10/21 20:08:49;;;;;;;24.50;2.22;;;;;;;19.69;46.00;99401.75;16104376;19;129743;-47
2023/10/21 20:14:11;;;;;;;22.05;1.65;;;;;;;19.75;45.91;99405.34;16108082;19;130003;-42
2023/10/21 20:19:33;;;;;;;14.52;1.67;;;;;;;19.84;46.10;99405.50;16110329;19;130051;-45
2023/10/21 20:24:56;;;;;;;16.73;2.15;;;;;;;19.95;45.74;99401.50;16107491;19;131744;-45
2023/10/21 20:30:18;;;;;;;62.97;5.82;;;;;;;20.09;46.03;99404.47;16103684;19;130215;-50
2023/10/21 20:35:40;;;;;;;23.63;2.85;;;;;;;20.23;45.42;99412.94;16107852;19;129991;-46
2023/10/21 20:41:20;;;;;;;13.48;2.30;;;;;;;20.36;44.71;99419.75;16110218;19;131384;-46
2023/10/21 20:46:42;;;;;;;22.48;2.88;;;;;;;20.41;45.21;99416.09;16108637;19;130792;-46
2023/10/21 20:52:06;;;;;;;10.20;1.92;;;;;;;20.42;44.58;99426.06;16105139;19;130179;-44
2023/10/21 20:57:28;;;;;;;17.90;2.08;;;;;;;20.42;44.45;99420.53;16107155;19;130261;-46
2023/10/21 21:02:50;;;;;;;17.42;1.73;;;;;;;20.40;44.17;99431.91;16105618;19;132113;-44
2023/10/21 21:08:12;;;;;;;7.80;1.45;;;;;;;20.38;44.54;99433.34;16105701;19;132065;-48
2023/10/21 21:13:34;;;;;;;25.17;1.65;;;;;;;20.32;44.39;99435.34;16106892;19;129631;-50
2023/10/21 21:18:56;;;;;;;12.25;2.00;;;;;;;20.26;44.63;99442.06;16108548;19;129782;-48
2023/10/21 21:24:19;;;;;;;8.50;1.40;;;;;;;20.21;44.25;99445.72;16104136;19;130676;-46
2023/10/21 21:29:41;;;;;;;17.48;1.95;;;;;;;20.18;44.72;99443.53;16106676;19;130011;-46
2023/10/21 21:35:03;;;;;;;8.38;1.42;;;;;;;20.14;44.41;99446.06;16103443;19;129404;-46
2023/10/21 21:40:26;;;;;;;7.85;1.27;;;;;;;20.10;44.67;99442.22;16112996;19;133427;-48
2023/10/21 21:45:48;;;;;;;14.90;2.05;;;;;;;20.09;44.43;99440.56;16118126;19;130336;-48
2023/10/21 21:51:10;;;;;;;13.95;1.67;;;;;;;20.07;44.31;99428.94;16115124;19;131153;-51
2023/10/21 21:56:33;;;;;;;98.72;4.40;;;;;;;20.05;44.35;99452.56;16120393;19;129996;-45
2023/10/21 22:01:55;;;;;;;20.30;2.80;;;;;;;20.03;44.48;99460.34;16113664;19;131835;-47
2023/10/21 22:07:19;;;;;;;18.33;1.88;;;;;;;20.02;44.82;99470.59;16115435;19;130137;-46
2023/10/21 22:12:41;;;;;;;21.50;1.55;;;;;;;20.01;44.56;99484.78;16115876;19;130363;-44
2023/10/21 22:18:03;;;;;;;15.38;1.80;;;;;;;19.96;44.88;99492.00;16116790;19;132207;-48
2023/10/21 22:23:27;;;;;;;14.32;1.33;;;;;;;19.90;44.83;99498.72;16113880;19;135121;-49
2023/10/21 22:28:50;;;;;;;14.48;1.65;;;;;;;19.87;44.62;99520.69;16116127;19;130699;-46
2023/10/21 22:34:12;;;;;;;14.35;1.30;;;;;;;19.83;44.39;99523.19;16114283;19;130298;-49
2023/10/21 22:39:34;;;;;;;15.07;1.08;;;;;;;19.79;44.69;99522.94;16114238;19;131926;-46
2023/10/21 22:44:57;;;;;;;10.60;1.40;;;;;;;19.76;44.78;99522.69;16112986;19;130398;-44
2023/10/21 22:50:19;;;;;;;6.20;0.98;;;;;;;19.73;44.64;99534.34;16109344;19;131947;-44
2023/10/21 22:55:41;;;;;;;7.50;0.93;;;;;;;19.68;44.52;99538.84;16115216;19;129692;-45
2023/10/21 23:01:08;;;;;;;6.25;0.77;;;;;;;19.66;44.77;99552.16;16112620;19;130449;-47
2023/10/21 23:06:33;;;;;;;6.72;1.10;;;;;;;19.62;44.65;99551.06;16110732;19;131081;-46
2023/10/21 23:11:56;;;;;;;4.90;0.82;;;;;;;19.57;45.07;99559.41;16113969;19;131130;-45
2023/10/21 23:17:18;;;;;;;5.80;1.08;;;;;;;19.57;45.04;99562.19;16114954;19;130923;-45
2023/10/21 23:22:40;;;;;;;5.53;0.85;;;;;;;19.55;45.11;99572.75;16113052;19;135664;-45
2023/10/21 23:28:02;;;;;;;3.92;0.90;;;;;;;19.52;44.77;99578.88;16113167;19;128785;-48
2023/10/21 23:33:24;;;;;;;5.53;0.70;;;;;;;19.50;44.97;99581.09;16115245;19;130347;-46
2023/10/21 23:38:46;;;;;;;4.05;0.98;;;;;;;19.49;45.23;99587.75;16114640;19;129722;-46
2023/10/21 23:44:08;;;;;;;2.40;0.68;;;;;;;19.46;44.87;99594.72;16113505;19;130831;-45
2023/10/21 23:49:30;;;;;;;4.03;0.82;;;;;;;19.44;45.08;99605.25;16109878;19;131540;-47
2023/10/21 23:54:53;;;;;;;5.68;0.90;;;;;;;19.42;44.94;99613.03;16113672;19;129563;-48
